Time;durP1;ratioP1;P1;durP2;ratioP2;P2;SDS_P1;SDS_P2;PMS_P1;PMS_P2;Temp;Humidity;BMP_temperature;BMP_pressure;BME280_temperature;BME280_humidity;BME280_pressure;Samples;Min_cycle;Max_cycle;Signal;HPM_P1;HPM_P2
2023/09/27 00:01:52;;;;;;;7.43;6.80;;;16.00;99.90;;;;;;5052992;28;20234;-76
2023/09/27 00:04:18;;;;;;;8.17;6.83;;;15.90;99.90;;;;;;5053938;28;20168;-76
2023/09/27 00:06:44;;;;;;;7.13;6.43;;;16.00;99.90;;;;;;5054672;28;20538;-76
2023/09/27 00:09:10;;;;;;;7.73;6.90;;;16.00;99.90;;;;;;5073592;28;20164;-77
2023/09/27 00:11:36;;;;;;;7.17;6.47;;;16.00;99.90;;;;;;5057829;28;20180;-77
2023/09/27 00:14:02;;;;;;;8.40;6.60;;;16.00;99.90;;;;;;5053568;28;20306;-77
2023/09/27 00:16:28;;;;;;;7.37;6.77;;;15.90;99.90;;;;;;5053824;28;20180;-77
2023/09/27 00:18:54;;;;;;;7.70;6.83;;;15.90;99.90;;;;;;5054166;28;20197;-75
2023/09/27 00:21:20;;;;;;;6.53;6.03;;;15.90;99.90;;;;;;5054342;28;20174;-77
2023/09/27 00:23:45;;;;;;;7.23;6.53;;;15.80;99.90;;;;;;5058322;28;20164;-76
2023/09/27 00:26:11;;;;;;;7.17;6.57;;;15.80;99.90;;;;;;5035079;28;20267;-76
2023/09/27 00:28:37;;;;;;;7.13;6.43;;;15.70;99.90;;;;;;5053780;28;20168;-77
2023/09/27 00:31:04;;;;;;;7.40;6.70;;;15.60;99.90;;;;;;5053302;28;20176;-77
2023/09/27 00:33:30;;;;;;;8.17;7.37;;;15.60;99.90;;;;;;5053624;28;20543;-77
2023/09/27 00:35:56;;;;;;;9.27;6.40;;;15.60;99.90;;;;;;5052783;28;20178;-76
2023/09/27 00:38:21;;;;;;;7.10;6.50;;;15.50;99.90;;;;;;5055273;28;20262;-76
2023/09/27 00:40:48;;;;;;;7.47;6.70;;;15.50;99.90;;;;;;5056990;28;20214;-76
2023/09/27 00:43:31;;;;;;;7.37;6.73;;;15.50;99.90;;;;;;5057171;28;20175;-76
2023/09/27 00:46:00;;;;;;;8.10;6.67;;;15.40;99.90;;;;;;5058803;28;20230;-75
2023/09/27 00:48:26;;;;;;;7.07;6.37;;;15.40;99.90;;;;;;5059123;28;20192;-75
2023/09/27 00:50:54;;;;;;;8.20;6.73;;;15.40;99.90;;;;;;5058532;28;20179;-76
2023/09/27 00:53:26;;;;;;;8.30;6.50;;;15.40;99.90;;;;;;5058382;28;20212;-75
2023/09/27 00:55:52;;;;;;;7.03;6.43;;;15.30;99.90;;;;;;5058105;28;20563;-77
2023/09/27 00:58:19;;;;;;;6.73;6.20;;;15.30;99.90;;;;;;5072488;28;20636;-76
2023/09/27 01:00:52;;;;;;;6.70;6.17;;;15.30;99.90;;;;;;5058815;28;20264;-76
2023/09/27 01:03:18;;;;;;;7.50;6.60;;;15.30;99.90;;;;;;5058658;28;20196;-76
2023/09/27 01:05:45;;;;;;;7.23;6.37;;;15.30;99.90;;;;;;5058718;28;20577;-76
2023/09/27 01:08:11;;;;;;;7.63;6.53;;;15.20;99.90;;;;;;5066718;28;20161;-77
2023/09/27 01:10:37;;;;;;;8.17;6.30;;;15.20;99.90;;;;;;5068713;28;20656;-77
2023/09/27 01:13:04;;;;;;;7.10;6.40;;;15.20;99.90;;;;;;5040573;28;20745;-75
2023/09/27 01:15:30;;;;;;;9.27;7.03;;;15.10;99.90;;;;;;5072791;28;20191;-79
2023/09/27 01:17:59;;;;;;;6.60;6.07;;;15.10;99.90;;;;;;5072288;28;20191;-77
2023/09/27 01:20:26;;;;;;;7.10;6.37;;;15.10;99.90;;;;;;5062085;28;20170;-76
2023/09/27 01:22:59;;;;;;;8.40;6.97;;;15.10;99.90;;;;;;5059811;28;20183;-76
2023/09/27 01:25:36;;;;;;;7.17;6.40;;;15.00;99.90;;;;;;5057412;28;20168;-75
2023/09/27 01:28:06;;;;;;;7.20;6.57;;;15.00;99.90;;;;;;5057027;28;20161;-76
2023/09/27 01:30:33;;;;;;;9.03;6.73;;;15.00;99.90;;;;;;5062999;28;20173;-76
2023/09/27 01:33:06;;;;;;;8.30;6.43;;;14.90;99.90;;;;;;5074061;28;20216;-76
2023/09/27 01:35:37;;;;;;;7.43;6.83;;;14.90;99.90;;;;;;5058921;28;20164;-79
2023/09/27 01:38:03;;;;;;;7.53;6.60;;;14.90;99.90;;;;;;5058364;28;20174;-78
2023/09/27 01:40:30;;;;;;;8.27;7.03;;;14.90;99.90;;;;;;5056113;28;20169;-77
2023/09/27 01:43:03;;;;;;;8.13;7.43;;;14.90;99.90;;;;;;5038290;28;20184;-77
2023/09/27 01:45:30;;;;;;;9.63;7.77;;;15.00;99.90;;;;;;5056126;28;20166;-76
2023/09/27 01:47:59;;;;;;;9.43;7.70;;;15.10;99.90;;;;;;5056737;28;20172;-77
2023/09/27 01:50:26;;;;;;;8.77;7.83;;;15.20;99.90;;;;;;5065080;28;20156;-77
2023/09/27 01:52:53;;;;;;;8.70;7.90;;;15.20;99.90;;;;;;5074862;28;20220;-76
2023/09/27 01:55:18;;;;;;;9.23;7.80;;;15.30;99.90;;;;;;5056294;28;20629;-77
2023/09/27 01:57:47;;;;;;;9.37;8.17;;;15.30;99.90;;;;;;5037570;28;20234;-76
2023/09/27 02:00:15;;;;;;;11.43;7.90;;;15.30;99.90;;;;;;5056757;28;20678;-78
2023/09/27 02:02:41;;;;;;;10.37;8.17;;;15.30;99.90;;;;;;5068130;28;20225;-77
2023/09/27 02:05:09;;;;;;;11.03;8.13;;;15.30;99.90;;;;;;5057708;28;20166;-75
2023/09/27 02:07:39;;;;;;;8.87;7.70;;;15.30;99.90;;;;;;5037626;28;20189;-76
2023/09/27 02:10:09;;;;;;;9.07;7.50;;;15.30;99.90;;;;;;5037710;28;20180;-76
2023/09/27 02:12:36;;;;;;;9.07;8.10;;;15.30;99.90;;;;;;5055421;28;20202;-75
2023/09/27 02:15:03;;;;;;;12.17;8.33;;;15.30;99.90;;;;;;5038436;28;20176;-76
2023/09/27 02:17:30;;;;;;;11.93;7.53;;;15.30;99.90;;;;;;5057401;28;20219;-76
2023/09/27 02:19:56;;;;;;;10.60;8.07;;;15.30;99.90;;;;;;5070681;28;20175;-77
2023/09/27 02:22:25;;;;;;;8.97;7.97;;;15.30;99.90;;;;;;5067271;28;20257;-77
2023/09/27 02:24:52;;;;;;;9.20;7.87;;;15.30;99.90;;;;;;5036937;28;20176;-77
2023/09/27 02:27:19;;;;;;;12.97;8.87;;;15.30;99.90;;;;;;5054866;28;20168;-77
2023/09/27 02:29:45;;;;;;;10.43;8.13;;;15.30;99.90;;;;;;5036758;28;20178;-77
2023/09/27 02:32:11;;;;;;;9.47;8.43;;;15.30;99.90;;;;;;5037160;28;20203;-78
2023/09/27 02:34:36;;;;;;;9.93;8.17;;;15.30;99.90;;;;;;5052387;28;20186;-76
2023/09/27 02:37:03;;;;;;;9.33;8.17;;;15.30;99.90;;;;;;5058744;28;20190;-77
2023/09/27 02:39:29;;;;;;;8.77;7.97;;;15.20;99.90;;;;;;5056298;28;20574;-76
2023/09/27 02:41:58;;;;;;;11.70;8.60;;;15.30;99.90;;;;;;5057616;28;20195;-77
2023/09/27 02:44:24;;;;;;;8.33;7.53;;;15.30;99.90;;;;;;5064282;28;20241;-77
2023/09/27 02:46:54;;;;;;;7.93;7.23;;;15.30;99.90;;;;;;5070841;28;20182;-78
2023/09/27 02:49:20;;;;;;;9.30;7.33;;;15.20;99.90;;;;;;5071776;28;20177;-77
2023/09/27 02:51:47;;;;;;;9.00;8.10;;;15.20;99.90;;;;;;5086319;28;20213;-77
2023/09/27 02:54:16;;;;;;;8.93;8.03;;;15.10;99.90;;;;;;5077512;28;20261;-77
2023/09/27 02:56:44;;;;;;;9.50;8.50;;;15.10;99.90;;;;;;5076171;28;20175;-77
2023/09/27 02:59:11;;;;;;;8.63;7.57;;;15.10;99.90;;;;;;5074944;28;20619;-76
2023/09/27 03:01:41;;;;;;;11.00;8.00;;;15.10;99.90;;;;;;5074380;28;20228;-75
2023/09/27 03:04:11;;;;;;;10.17;8.20;;;15.10;99.90;;;;;;5075285;28;20509;-76
2023/09/27 03:06:41;;;;;;;8.50;7.77;;;15.10;99.90;;;;;;5088855;28;20183;-79
2023/09/27 03:09:11;;;;;;;9.03;8.03;;;15.10;99.90;;;;;;5091809;28;20178;-76
2023/09/27 03:11:39;;;;;;;9.43;8.53;;;15.10;99.90;;;;;;5077710;28;20160;-76
2023/09/27 03:14:05;;;;;;;12.07;7.93;;;15.10;99.90;;;;;;5073993;28;20684;-76
2023/09/27 03:16:31;;;;;;;9.80;8.77;;;15.10;99.90;;;;;;5077223;28;20176;-77
2023/09/27 03:18:59;;;;;;;9.43;7.90;;;15.10;99.90;;;;;;5069460;28;20185;-77
2023/09/27 03:21:28;;;;;;;13.53;8.63;;;15.10;99.90;;;;;;5057211;28;20175;-77
2023/09/27 03:23:54;;;;;;;9.63;8.13;;;15.10;99.90;;;;;;5056025;28;20295;-77
2023/09/27 03:26:23;;;;;;;9.30;8.27;;;15.10;99.90;;;;;;5074519;28;20210;-77
2023/09/27 03:28:50;;;;;;;12.30;8.30;;;15.10;99.90;;;;;;5074354;28;20205;-78
2023/09/27 03:31:16;;;;;;;9.93;8.37;;;15.10;99.90;;;;;;5074412;28;20183;-77
2023/09/27 03:33:42;;;;;;;9.90;8.37;;;15.20;99.90;;;;;;5074541;28;20211;-75
2023/09/27 03:36:08;;;;;;;11.53;8.53;;;15.10;99.90;;;;;;5064061;28;20194;-75
2023/09/27 03:38:34;;;;;;;10.80;8.27;;;15.20;99.90;;;;;;5036149;28;20644;-77
2023/09/27 03:41:00;;;;;;;9.07;8.10;;;15.10;99.90;;;;;;5054124;28;20171;-76
2023/09/27 03:43:25;;;;;;;8.80;7.90;;;15.10;99.90;;;;;;5054302;28;20184;-77
2023/09/27 03:45:52;;;;;;;9.23;8.27;;;15.10;99.90;;;;;;5055800;28;20436;-76
2023/09/27 03:48:19;;;;;;;8.63;7.77;;;15.10;99.90;;;;;;5053974;28;20654;-75
2023/09/27 03:50:45;;;;;;;9.00;8.10;;;15.10;99.90;;;;;;5053423;28;20619;-75
2023/09/27 03:53:11;;;;;;;11.17;8.43;;;15.10;99.90;;;;;;5057214;28;20204;-78
2023/09/27 03:55:37;;;;;;;11.40;8.40;;;15.10;99.90;;;;;;5057444;28;20172;-76
2023/09/27 03:58:03;;;;;;;9.00;8.20;;;15.10;99.90;;;;;;5036016;28;20179;-76
2023/09/27 04:00:29;;;;;;;12.17;8.23;;;15.10;99.90;;;;;;5053632;28;20176;-78
2023/09/27 04:02:55;;;;;;;8.57;7.77;;;15.10;99.90;;;;;;5065858;28;20192;-77
2023/09/27 04:05:23;;;;;;;9.93;8.10;;;15.10;99.90;;;;;;5069290;28;20182;-76
2023/09/27 04:07:49;;;;;;;9.80;8.20;;;15.00;99.90;;;;;;5065189;28;20174;-76
2023/09/27 04:10:17;;;;;;;8.33;7.50;;;15.00;99.90;;;;;;5072881;28;20192;-78
2023/09/27 04:12:43;;;;;;;9.30;8.10;;;15.10;99.90;;;;;;5076497;28;20194;-76
2023/09/27 04:15:09;;;;;;;11.47;8.43;;;15.10;99.90;;;;;;5081497;28;20174;-76
2023/09/27 04:17:38;;;;;;;9.20;8.27;;;15.10;99.90;;;;;;5093653;28;20193;-77
2023/09/27 04:20:11;;;;;;;9.17;8.30;;;15.00;99.90;;;;;;5079829;28;20167;-77
2023/09/27 04:22:36;;;;;;;8.73;7.83;;;15.00;99.90;;;;;;5094230;28;20214;-78
2023/09/27 04:25:04;;;;;;;11.60;8.13;;;15.10;99.90;;;;;;5084728;28;20695;-75
2023/09/27 04:27:29;;;;;;;8.60;7.40;;;15.00;99.90;;;;;;5059305;28;20207;-77
2023/09/27 04:29:55;;;;;;;11.03;8.10;;;15.10;99.90;;;;;;5077375;28;20214;-75
2023/09/27 04:32:23;;;;;;;8.03;7.23;;;15.10;99.90;;;;;;5077215;28;20263;-77
2023/09/27 04:34:48;;;;;;;9.87;8.10;;;15.10;99.90;;;;;;5077151;28;20651;-76
2023/09/27 04:37:14;;;;;;;9.30;8.20;;;15.10;99.90;;;;;;5077236;28;20194;-76
2023/09/27 04:39:40;;;;;;;9.00;8.20;;;15.10;99.90;;;;;;5077058;28;20627;-76
2023/09/27 04:42:06;;;;;;;9.13;8.03;;;15.10;99.90;;;;;;5077190;28;20258;-76
2023/09/27 04:44:31;;;;;;;10.23;8.43;;;15.00;99.90;;;;;;5076936;28;20180;-76
2023/09/27 04:46:57;;;;;;;8.70;7.77;;;15.00;99.90;;;;;;5077404;28;20178;-75
2023/09/27 04:49:23;;;;;;;8.77;7.97;;;15.10;99.90;;;;;;5076862;28;20699;-75
2023/09/27 04:51:49;;;;;;;9.13;8.33;;;15.00;99.90;;;;;;5059166;28;20179;-76
2023/09/27 04:54:14;;;;;;;9.57;7.97;;;15.00;99.90;;;;;;5078357;28;20234;-76
2023/09/27 04:56:40;;;;;;;10.83;7.70;;;15.00;99.90;;;;;;5084588;28;20177;-76
2023/09/27 04:59:06;;;;;;;9.53;8.10;;;15.00;99.90;;;;;;5099271;28;20187;-76
2023/09/27 05:01:32;;;;;;;10.30;7.73;;;15.00;99.90;;;;;;5095705;28;20250;-76
2023/09/27 05:03:58;;;;;;;8.97;8.07;;;15.00;99.90;;;;;;5078389;28;20182;-76
2023/09/27 05:06:24;;;;;;;9.53;7.87;;;15.00;99.90;;;;;;5077112;28;20171;-77
2023/09/27 05:08:50;;;;;;;10.40;8.10;;;15.10;99.90;;;;;;5089522;28;20186;-77
2023/09/27 05:11:18;;;;;;;9.60;8.27;;;15.10;99.90;;;;;;5090560;28;20179;-77
2023/09/27 05:13:46;;;;;;;10.63;7.97;;;15.10;99.90;;;;;;5082923;28;20195;-76
2023/09/27 05:16:12;;;;;;;9.50;8.17;;;15.00;99.90;;;;;;5088170;28;20189;-78
2023/09/27 05:18:38;;;;;;;11.67;7.80;;;15.00;99.90;;;;;;5088537;28;20168;-76
2023/09/27 05:21:08;;;;;;;12.00;8.93;;;15.00;99.90;;;;;;5076498;28;20526;-77
2023/09/27 05:23:34;;;;;;;8.73;7.83;;;15.00;99.90;;;;;;5075759;28;20205;-76
2023/09/27 05:26:00;;;;;;;8.90;8.00;;;15.10;99.90;;;;;;5076723;28;20179;-76
2023/09/27 05:28:28;;;;;;;10.30;8.23;;;15.10;99.90;;;;;;5085129;28;20171;-77
2023/09/27 05:30:54;;;;;;;12.37;7.93;;;15.10;99.90;;;;;;5077259;28;20179;-76
2023/09/27 05:33:19;;;;;;;8.47;7.67;;;15.20;99.90;;;;;;5075818;28;20233;-77
2023/09/27 05:35:50;;;;;;;10.23;8.30;;;15.10;99.90;;;;;;5076224;28;20173;-76
2023/09/27 05:38:16;;;;;;;10.67;7.40;;;15.20;99.90;;;;;;5075901;28;20213;-76
2023/09/27 05:40:42;;;;;;;10.90;8.20;;;15.20;99.90;;;;;;5076240;28;20172;-77
2023/09/27 05:43:08;;;;;;;12.63;7.77;;;15.30;99.90;;;;;;5076936;28;20503;-77
2023/09/27 05:45:34;;;;;;;9.27;8.27;;;15.20;99.90;;;;;;5076416;28;20262;-77
2023/09/27 05:48:00;;;;;;;9.33;7.57;;;15.30;99.90;;;;;;5091427;28;20199;-76
2023/09/27 05:50:26;;;;;;;9.93;7.97;;;15.20;99.90;;;;;;5082438;28;20212;-76
2023/09/27 05:52:52;;;;;;;13.63;7.60;;;15.30;99.90;;;;;;5078267;28;20206;-76
2023/09/27 05:55:17;;;;;;;10.00;7.87;;;15.30;99.90;;;;;;5076918;28;20186;-77
2023/09/27 05:57:44;;;;;;;11.87;8.33;;;15.30;99.90;;;;;;5081631;28;20203;-78
2023/09/27 06:00:37;;;;;;;12.63;8.43;;;15.30;99.90;;;;;;5091030;28;20183;-76
2023/09/27 06:02:59;;;;;;;9.87;8.07;;;15.30;99.90;;;;;;5075786;28;20215;-76
2023/09/27 06:05:25;;;;;;;9.53;8.50;;;15.40;99.90;;;;;;5075277;28;20183;-79
2023/09/27 06:07:52;;;;;;;9.70;7.63;;;15.40;99.90;;;;;;5056906;28;20179;-78
2023/09/27 06:10:18;;;;;;;9.77;8.73;;;15.40;99.90;;;;;;5075272;28;20626;-76
2023/09/27 06:12:44;;;;;;;10.53;8.07;;;15.50;99.90;;;;;;5076721;28;20202;-77
2023/09/27 06:15:12;;;;;;;9.83;8.33;;;15.50;99.90;;;;;;5089126;28;20199;-77
2023/09/27 06:17:37;;;;;;;12.80;8.27;;;15.50;99.90;;;;;;5087122;28;20168;-78
2023/09/27 06:20:11;;;;;;;10.13;8.47;;;15.60;99.90;;;;;;5075802;28;20582;-77
2023/09/27 06:22:40;;;;;;;10.83;8.80;;;15.60;99.90;;;;;;5075726;28;20607;-75
2023/09/27 06:25:06;;;;;;;16.43;7.93;;;15.70;99.90;;;;;;5075002;28;20168;-77
2023/09/27 06:27:32;;;;;;;9.80;8.00;;;15.70;99.90;;;;;;5075178;28;20763;-77
2023/09/27 06:29:57;;;;;;;9.60;8.60;;;15.80;99.90;;;;;;5075110;28;20175;-78
2023/09/27 06:32:23;;;;;;;9.27;8.03;;;15.90;99.90;;;;;;5075336;28;20215;-77
2023/09/27 06:34:52;;;;;;;8.20;7.40;;;15.90;99.90;;;;;;5074692;28;20171;-77
2023/09/27 06:37:18;;;;;;;10.73;9.63;;;16.00;99.90;;;;;;5075018;28;20168;-76
2023/09/27 06:39:44;;;;;;;10.50;8.00;;;16.00;99.90;;;;;;5075000;28;20251;-77
2023/09/27 06:42:10;;;;;;;8.10;7.23;;;16.10;99.90;;;;;;5077591;28;20226;-77
2023/09/27 06:44:36;;;;;;;11.97;8.10;;;16.20;99.90;;;;;;5086400;28;20179;-75
2023/09/27 06:47:04;;;;;;;8.83;7.93;;;16.20;99.90;;;;;;5079588;28;20177;-78
2023/09/27 06:49:30;;;;;;;9.30;8.27;;;16.20;99.90;;;;;;5088325;28;20207;-77
2023/09/27 06:51:56;;;;;;;8.70;7.80;;;16.30;99.90;;;;;;5079364;28;20274;-76
2023/09/27 06:54:22;;;;;;;10.80;7.57;;;16.30;99.90;;;;;;5075318;28;20236;-77
2023/09/27 06:56:48;;;;;;;10.13;7.70;;;16.30;99.90;;;;;;5075354;28;20171;-77
2023/09/27 06:59:14;;;;;;;9.33;8.33;;;16.40;99.90;;;;;;5083994;28;20175;-77
2023/09/27 07:01:41;;;;;;;8.70;7.63;;;16.40;99.90;;;;;;5082034;28;20219;-77
2023/09/27 07:04:08;;;;;;;8.93;7.77;;;16.40;99.90;;;;;;5078768;28;20179;-77
2023/09/27 07:06:34;;;;;;;9.23;7.37;;;16.40;99.90;;;;;;5077879;28;20171;-77
2023/09/27 07:09:00;;;;;;;8.73;7.87;;;16.50;99.90;;;;;;5077539;28;20680;-77
2023/09/27 07:11:25;;;;;;;8.73;7.70;;;16.50;99.90;;;;;;5075596;28;20260;-76
2023/09/27 07:13:52;;;;;;;9.17;7.10;;;16.60;99.90;;;;;;5074648;28;20203;-76
2023/09/27 07:16:26;;;;;;;8.53;7.23;;;16.70;99.90;;;;;;5074940;28;20177;-77
2023/09/27 07:18:55;;;;;;;8.57;7.33;;;16.80;99.90;;;;;;5074574;28;20168;-78
2023/09/27 07:21:23;;;;;;;9.93;7.80;;;16.90;99.90;;;;;;5075081;28;20224;-77
2023/09/27 07:23:50;;;;;;;8.57;7.07;;;17.00;99.90;;;;;;5086371;28;20182;-78
2023/09/27 07:26:16;;;;;;;7.80;7.10;;;17.10;99.90;;;;;;5079536;28;20163;-76
2023/09/27 07:28:42;;;;;;;7.50;6.80;;;17.20;99.90;;;;;;5075182;28;20202;-77
2023/09/27 07:31:08;;;;;;;8.67;7.30;;;17.20;99.90;;;;;;5075335;28;20174;-77
2023/09/27 07:33:34;;;;;;;7.43;6.77;;;17.20;99.90;;;;;;5074451;28;20202;-76
2023/09/27 07:36:00;;;;;;;7.70;6.90;;;17.30;99.90;;;;;;5087892;28;20184;-79
2023/09/27 07:38:26;;;;;;;7.20;6.60;;;17.30;99.90;;;;;;5074824;28;20173;-76
2023/09/27 07:40:52;;;;;;;7.53;6.83;;;17.40;99.90;;;;;;5074702;28;20765;-76
2023/09/27 07:43:18;;;;;;;11.10;7.10;;;17.40;99.90;;;;;;5074753;28;20171;-76
2023/09/27 07:45:47;;;;;;;7.83;7.07;;;17.50;99.90;;;;;;5074307;28;20207;-76
2023/09/27 07:48:21;;;;;;;8.93;7.13;;;17.50;99.90;;;;;;5073876;28;20175;-78
2023/09/27 07:50:47;;;;;;;8.80;6.50;;;17.60;99.90;;;;;;5056550;28;20205;-78
2023/09/27 07:53:13;;;;;;;8.07;7.17;;;17.60;99.90;;;;;;5074048;28;20607;-76
2023/09/27 07:55:46;;;;;;;8.47;6.80;;;17.60;99.90;;;;;;5073824;28;20166;-76
2023/09/27 07:58:13;;;;;;;9.50;7.00;;;17.70;99.90;;;;;;5073584;28;20241;-76
2023/09/27 08:00:43;;;;;;;8.10;6.13;;;17.80;99.90;;;;;;5073816;28;20193;-77
2023/09/27 08:03:10;;;;;;;7.00;6.40;;;17.90;99.90;;;;;;5074962;28;20198;-77
2023/09/27 08:05:42;;;;;;;9.27;6.80;;;18.10;99.90;;;;;;5074607;28;20581;-76
2023/09/27 08:08:13;;;;;;;8.30;6.77;;;18.10;99.90;;;;;;5074392;28;20163;-76
2023/09/27 08:10:43;;;;;;;7.83;7.03;;;18.10;99.90;;;;;;5074632;28;20672;-76
2023/09/27 08:13:18;;;;;;;8.07;6.93;;;18.20;99.90;;;;;;5075969;28;20242;-78
2023/09/27 08:15:50;;;;;;;11.70;7.17;;;18.30;99.90;;;;;;5059867;28;20221;-78
2023/09/27 08:18:17;;;;;;;7.90;7.20;;;18.40;99.90;;;;;;5082679;28;20151;-78
2023/09/27 08:20:42;;;;;;;8.27;7.17;;;18.50;99.90;;;;;;5080507;28;20199;-77
2023/09/27 08:23:08;;;;;;;8.47;7.00;;;18.60;99.90;;;;;;5078775;28;20643;-78
2023/09/27 08:25:34;;;;;;;10.63;7.33;;;18.70;99.90;;;;;;5078409;28;20203;-77
2023/09/27 08:28:01;;;;;;;12.70;7.80;;;18.70;99.90;;;;;;5075470;28;20213;-77
2023/09/27 08:30:27;;;;;;;8.57;7.57;;;18.70;99.90;;;;;;5073863;28;20517;-77
2023/09/27 08:32:53;;;;;;;9.00;7.77;;;18.70;99.90;;;;;;5073529;28;20204;-76
2023/09/27 08:35:19;;;;;;;16.73;7.83;;;18.80;99.90;;;;;;5074767;28;20172;-77
2023/09/27 08:37:45;;;;;;;9.93;7.47;;;18.80;99.90;;;;;;5075935;28;20170;-78
2023/09/27 08:40:15;;;;;;;9.00;8.10;;;18.80;99.90;;;;;;5068513;28;20171;-78
2023/09/27 08:42:42;;;;;;;11.13;7.77;;;18.80;99.90;;;;;;5076903;28;20258;-77
2023/09/27 08:45:19;;;;;;;9.30;8.30;;;18.80;99.90;;;;;;5078434;28;20183;-76
2023/09/27 08:47:45;;;;;;;9.47;8.23;;;18.80;99.90;;;;;;5073872;28;20222;-78
2023/09/27 08:50:13;;;;;;;9.53;7.77;;;18.80;99.90;;;;;;5073411;28;20176;-76
2023/09/27 08:52:45;;;;;;;11.77;7.60;;;18.80;99.90;;;;;;5073264;28;20191;-77
2023/09/27 08:55:12;;;;;;;11.13;8.17;;;18.80;99.90;;;;;;5074189;28;20194;-78
2023/09/27 08:57:44;;;;;;;13.43;10.70;;;18.80;99.90;;;;;;5073871;28;20262;-76
2023/09/27 09:00:13;;;;;;;8.57;7.60;;;18.70;99.90;;;;;;5081775;28;20174;-78
2023/09/27 09:02:43;;;;;;;12.47;8.00;;;18.70;99.90;;;;;;5084209;28;20306;-78
2023/09/27 09:05:11;;;;;;;18.80;7.90;;;18.80;99.90;;;;;;5088070;28;20198;-76
2023/09/27 09:07:42;;;;;;;11.13;7.80;;;18.80;99.90;;;;;;5082359;28;20178;-76
2023/09/27 09:10:13;;;;;;;10.83;8.50;;;18.80;99.90;;;;;;5084627;28;20151;-78
2023/09/27 09:12:41;;;;;;;8.53;7.63;;;18.90;99.90;;;;;;5088548;28;20198;-77
2023/09/27 09:15:15;;;;;;;8.67;7.87;;;19.00;99.90;;;;;;5079488;28;20171;-77
2023/09/27 09:17:47;;;;;;;8.37;7.30;;;19.10;99.90;;;;;;5077687;28;20159;-76
2023/09/27 09:20:28;;;;;;;7.90;7.20;;;19.20;99.90;;;;;;5077237;28;20163;-77
2023/09/27 09:22:57;;;;;;;14.27;7.50;;;19.30;99.90;;;;;;5076980;28;20163;-77
2023/09/27 09:25:27;;;;;;;8.73;7.50;;;19.40;99.90;;;;;;5077673;28;20242;-78
2023/09/27 09:28:09;;;;;;;11.80;6.97;;;19.40;99.90;;;;;;5060443;28;20594;-76
2023/09/27 09:30:40;;;;;;;8.33;6.93;;;19.40;99.90;;;;;;5077151;28;20174;-77
2023/09/27 09:33:20;;;;;;;9.93;7.03;;;19.50;99.90;;;;;;5076488;28;20203;-77
2023/09/27 09:35:46;;;;;;;8.07;6.77;;;19.50;99.90;;;;;;5076457;28;20217;-76
2023/09/27 09:38:23;;;;;;;8.93;6.33;;;19.60;99.90;;;;;;5076287;28;20172;-77
2023/09/27 09:40:56;;;;;;;8.17;6.67;;;19.70;99.90;;;;;;5076142;28;20225;-76
2023/09/27 09:43:38;;;;;;;7.00;6.30;;;19.80;99.90;;;;;;5076612;28;20568;-77
2023/09/27 09:46:06;;;;;;;10.90;7.30;;;19.80;99.90;;;;;;5078043;28;20220;-76
2023/09/27 09:48:34;;;;;;;6.83;6.10;;;19.80;99.90;;;;;;5076022;28;20174;-77
2023/09/27 09:51:06;;;;;;;6.97;6.27;;;19.80;99.90;;;;;;5058296;28;20213;-76
2023/09/27 09:53:36;;;;;;;7.87;6.10;;;19.90;99.90;;;;;;5076177;28;20238;-76
2023/09/27 09:56:05;;;;;;;8.27;6.67;;;19.80;99.90;;;;;;5076119;28;20236;-78
2023/09/27 09:58:57;;;;;;;9.27;6.03;;;19.80;99.90;;;;;;5075901;28;20172;-78
2023/09/27 10:01:28;;;;;;;8.60;5.97;;;19.80;99.90;;;;;;5075924;28;20227;-78
2023/09/27 10:03:56;;;;;;;6.30;5.77;;;19.90;99.90;;;;;;5076876;28;20500;-78
2023/09/27 10:06:22;;;;;;;7.50;5.80;;;20.00;99.90;;;;;;5094123;28;20264;-79
2023/09/27 10:08:49;;;;;;;12.97;5.60;;;20.10;99.90;;;;;;5082156;28;20179;-77
2023/09/27 10:11:16;;;;;;;6.03;5.53;;;20.10;99.90;;;;;;5077687;28;20175;-78
2023/09/27 10:13:43;;;;;;;7.77;5.70;;;20.20;99.90;;;;;;5075499;28;20199;-78
2023/09/27 10:16:10;;;;;;;9.80;6.40;;;20.30;99.90;;;;;;5076099;28;20191;-77
2023/09/27 10:18:42;;;;;;;5.97;5.30;;;20.40;99.90;;;;;;5076061;28;20515;-75
2023/09/27 10:21:10;;;;;;;5.50;5.00;;;20.50;99.90;;;;;;5076026;28;20166;-77
2023/09/27 10:23:45;;;;;;;6.27;4.97;;;20.60;99.90;;;;;;5077324;28;20171;-77
2023/09/27 10:26:27;;;;;;;6.80;5.47;;;20.70;99.90;;;;;;5065305;28;20177;-76
2023/09/27 10:29:09;;;;;;;5.67;5.00;;;20.80;99.90;;;;;;5078734;28;20198;-76
2023/09/27 10:31:55;;;;;;;5.83;4.77;;;20.90;99.90;;;;;;5090326;28;20167;-77
2023/09/27 10:34:30;;;;;;;5.50;5.00;;;21.00;99.90;;;;;;5089106;28;20199;-78
2023/09/27 10:37:00;;;;;;;7.20;5.25;;;21.00;99.90;;;;;;5077533;28;20163;-80
2023/09/27 10:39:26;;;;;;;7.33;5.87;;;21.00;99.90;;;;;;5091767;28;20198;-77
2023/09/27 10:41:53;;;;;;;5.05;4.55;;;21.10;99.90;;;;;;5078276;28;20175;-79
2023/09/27 10:44:33;;;;;;;4.77;4.37;;;21.20;99.90;;;;;;5075870;28;20171;-77
2023/09/27 10:47:03;;;;;;;6.82;5.10;;;21.30;99.90;;;;;;5074246;28;20427;-76
2023/09/27 10:49:37;;;;;;;7.53;4.80;;;21.40;99.90;;;;;;5082036;28;20155;-77
2023/09/27 10:52:03;;;;;;;6.60;5.33;;;21.40;99.90;;;;;;5082268;28;20163;-78
2023/09/27 10:54:29;;;;;;;7.07;4.70;;;21.40;99.90;;;;;;5074648;28;20209;-79
2023/09/27 10:56:56;;;;;;;6.90;4.77;;;21.30;99.90;;;;;;5074639;28;20250;-78
2023/09/27 10:59:30;;;;;;;6.27;5.20;;;21.30;99.90;;;;;;5074370;28;20672;-76
2023/09/27 11:01:58;;;;;;;8.73;5.20;;;21.30;99.90;;;;;;5074966;28;20269;-75
2023/09/27 11:04:25;;;;;;;6.67;5.17;;;21.40;99.90;;;;;;5078263;28;20715;-77
2023/09/27 11:06:52;;;;;;;5.67;4.73;;;21.50;99.90;;;;;;5077338;28;20171;-76
2023/09/27 11:09:19;;;;;;;11.80;6.10;;;21.60;99.90;;;;;;5075432;28;20167;-78
2023/09/27 11:11:49;;;;;;;10.13;4.87;;;21.60;99.90;;;;;;5074609;28;20523;-79
2023/09/27 11:14:31;;;;;;;5.67;4.00;;;21.50;99.90;;;;;;5074546;28;20207;-77
2023/09/27 11:17:22;;;;;;;8.23;4.37;;;21.60;99.90;;;;;;5074198;28;20210;-77
2023/09/27 11:19:52;;;;;;;6.67;4.83;;;21.50;99.90;;;;;;5074440;28;20191;-78
2023/09/27 11:22:25;;;;;;;7.27;4.63;;;21.50;99.90;;;;;;5074240;28;20308;-77
2023/09/27 11:24:51;;;;;;;7.20;4.50;;;21.50;99.90;;;;;;5075205;28;20258;-77
2023/09/27 11:27:19;;;;;;;7.27;5.20;;;21.70;99.90;;;;;;5085450;28;20213;-78
2023/09/27 11:29:50;;;;;;;4.57;4.17;;;21.70;99.90;;;;;;5074972;28;20261;-76
2023/09/27 11:32:16;;;;;;;7.50;4.20;;;21.70;99.90;;;;;;5075057;28;20234;-76
2023/09/27 11:34:42;;;;;;;5.27;3.87;;;21.80;99.90;;;;;;5074265;28;20312;-77
2023/09/27 11:37:17;;;;;;;4.03;3.60;;;21.90;99.90;;;;;;5074360;28;20511;-76
2023/09/27 11:39:50;;;;;;;5.97;4.13;;;22.00;99.90;;;;;;5074068;28;20178;-78
2023/09/27 11:42:26;;;;;;;5.20;4.20;;;22.10;99.90;;;;;;5074175;28;20174;-78
2023/09/27 11:45:09;;;;;;;7.60;4.10;;;22.10;99.90;;;;;;5074029;28;20260;-77
2023/09/27 11:47:46;;;;;;;5.47;4.00;;;22.10;99.90;;;;;;5078215;28;20185;-78
2023/09/27 11:50:13;;;;;;;6.50;3.57;;;22.10;99.90;;;;;;5073940;28;20175;-78
2023/09/27 11:52:39;;;;;;;5.33;3.73;;;22.00;99.90;;;;;;5074540;28;20214;-77
2023/09/27 11:55:06;;;;;;;9.40;4.30;;;22.00;99.90;;;;;;5074520;28;20646;-76
2023/09/27 11:57:32;;;;;;;9.50;4.05;;;22.00;99.90;;;;;;5074377;28;20252;-77
2023/09/27 11:59:57;;;;;;;7.20;3.73;;;22.00;99.90;;;;;;5077171;28;20242;-77
2023/09/27 12:02:23;;;;;;;4.80;3.50;;;22.10;99.90;;;;;;5064361;28;20257;-77
2023/09/27 12:04:52;;;;;;;5.43;3.40;;;22.10;99.90;;;;;;5080721;28;20236;-76
2023/09/27 12:07:18;;;;;;;8.50;4.20;;;22.10;99.90;;;;;;5082137;28;20236;-75
2023/09/27 12:09:43;;;;;;;5.47;4.30;;;22.10;99.90;;;;;;5082406;28;20182;-77
2023/09/27 12:12:09;;;;;;;6.45;3.80;;;22.20;99.90;;;;;;5074614;28;20565;-77
2023/09/27 12:14:35;;;;;;;5.07;4.13;;;22.20;99.90;;;;;;5077068;28;20637;-76
2023/09/27 12:17:01;;;;;;;5.97;3.50;;;22.20;99.90;;;;;;5088095;28;20171;-76
2023/09/27 12:19:27;;;;;;;3.67;3.33;;;22.20;99.60;;;;;;5080662;28;20179;-77
2023/09/27 12:21:52;;;;;;;5.18;3.35;;;22.30;99.90;;;;;;5082659;28;20175;-80
2023/09/27 12:24:18;;;;;;;5.77;3.50;;;22.30;98.20;;;;;;5095931;28;20175;-78
2023/09/27 12:26:44;;;;;;;5.70;3.83;;;22.30;98.50;;;;;;5089950;28;20168;-77
2023/09/27 12:29:10;;;;;;;8.10;3.17;;;22.50;97.80;;;;;;5085185;28;20643;-77
2023/09/27 12:31:36;;;;;;;4.43;3.13;;;22.50;98.20;;;;;;5073986;28;20180;-77
2023/09/27 12:34:01;;;;;;;5.57;3.53;;;22.50;98.00;;;;;;5077667;28;20256;-75
2023/09/27 12:36:27;;;;;;;3.85;3.20;;;22.40;97.10;;;;;;5077540;28;20577;-78
2023/09/27 12:38:53;;;;;;;4.73;2.90;;;22.30;97.60;;;;;;5059856;28;20267;-78
2023/09/27 12:41:22;;;;;;;5.05;3.42;;;22.40;97.70;;;;;;5077338;28;20579;-78
2023/09/27 12:43:47;;;;;;;6.67;3.57;;;22.40;98.90;;;;;;5077823;28;20217;-76
2023/09/27 12:46:14;;;;;;;4.68;3.22;;;22.40;98.60;;;;;;5077814;28;20569;-76
2023/09/27 12:48:40;;;;;;;7.85;3.90;;;22.30;99.10;;;;;;5077838;28;20167;-75
2023/09/27 12:51:07;;;;;;;6.68;3.47;;;22.30;99.30;;;;;;5077976;28;20250;-76